Time;durP1;ratioP1;P1;durP2;ratioP2;P2;SDS_P1;SDS_P2;PMS_P1;PMS_P2;Temp;Humidity;BMP_temperature;BMP_pressure;BME280_temperature;BME280_humidity;BME280_pressure;Samples;Min_cycle;Max_cycle;Signal;HPM_P1;HPM_P2
2021/03/17 00:00:35;;;;;;;0.80;0.10;;;20.90;39.40;;;;;;5052973;28;20778;-83
2021/03/17 00:03:00;;;;;;;0.95;0.10;;;20.90;39.40;;;;;;5045460;28;20022;-85
2021/03/17 00:05:31;;;;;;;0.75;0.10;;;20.80;39.30;;;;;;5043636;28;20809;-84
2021/03/17 00:07:57;;;;;;;0.52;0.10;;;20.80;39.90;;;;;;5065171;28;20025;-83
2021/03/17 00:10:24;;;;;;;1.50;0.10;;;20.80;39.30;;;;;;5050268;28;20493;-84
2021/03/17 00:12:51;;;;;;;1.80;0.08;;;20.80;39.40;;;;;;5048147;28;20025;-84
2021/03/17 00:15:20;;;;;;;0.85;0.10;;;20.80;39.40;;;;;;5055092;28;20028;-83
2021/03/17 00:17:46;;;;;;;0.60;0.10;;;20.80;39.40;;;;;;5047093;28;20022;-83
2021/03/17 00:20:12;;;;;;;1.08;0.10;;;20.80;39.40;;;;;;5051127;28;20022;-84
2021/03/17 00:22:38;;;;;;;0.30;0.10;;;20.70;39.40;;;;;;5026048;28;20124;-83
2021/03/17 00:25:05;;;;;;;0.68;0.00;;;20.70;39.40;;;;;;5050423;28;20029;-83
2021/03/17 00:27:30;;;;;;;1.55;0.10;;;20.70;39.40;;;;;;5051756;28;20485;-83
2021/03/17 00:29:56;;;;;;;1.02;0.10;;;20.70;39.40;;;;;;5046718;28;20044;-83
2021/03/17 00:32:22;;;;;;;0.75;0.10;;;20.70;39.50;;;;;;5045350;28;20033;-84
2021/03/17 00:34:48;;;;;;;0.60;0.10;;;20.70;39.40;;;;;;5026413;28;20021;-83
2021/03/17 00:37:13;;;;;;;0.50;0.10;;;20.70;39.40;;;;;;5046619;28;20025;-84
2021/03/17 00:39:39;;;;;;;0.40;0.10;;;20.70;39.40;;;;;;5044635;28;20104;-84
2021/03/17 00:42:04;;;;;;;0.50;0.10;;;20.60;39.40;;;;;;5029914;28;20428;-84
2021/03/17 00:44:30;;;;;;;0.68;0.00;;;20.60;39.40;;;;;;5054200;28;20445;-83
2021/03/17 00:46:56;;;;;;;0.65;0.10;;;20.60;39.40;;;;;;5044364;28;20108;-83
2021/03/17 00:49:21;;;;;;;1.35;0.10;;;20.60;39.40;;;;;;5027729;28;20036;-83
2021/03/17 00:51:47;;;;;;;0.28;0.10;;;20.60;39.50;;;;;;5045639;28;20037;-84
2021/03/17 00:54:13;;;;;;;0.73;0.10;;;20.60;39.40;;;;;;5033273;28;20038;-83
2021/03/17 00:56:38;;;;;;;0.30;0.05;;;20.60;39.50;;;;;;5048073;28;20047;-83
2021/03/17 00:59:04;;;;;;;0.90;0.00;;;20.60;39.40;;;;;;5043238;28;20083;-84
2021/03/17 01:01:30;;;;;;;0.20;0.00;;;20.60;39.40;;;;;;5049942;28;20028;-84
2021/03/17 01:03:55;;;;;;;0.45;0.08;;;20.60;39.30;;;;;;5031503;28;20032;-84
2021/03/17 01:06:21;;;;;;;0.43;0.00;;;20.60;39.40;;;;;;5043240;28;20028;-83
2021/03/17 01:08:46;;;;;;;0.60;0.00;;;20.50;39.40;;;;;;5023466;28;20120;-83
2021/03/17 01:11:14;;;;;;;0.20;0.00;;;20.50;39.50;;;;;;5031294;28;20033;-84
2021/03/17 01:13:40;;;;;;;0.80;0.20;;;20.50;39.50;;;;;;5051823;28;20033;-82
2021/03/17 01:16:06;;;;;;;0.20;0.00;;;20.50;39.40;;;;;;5049858;28;20107;-83
2021/03/17 01:18:31;;;;;;;0.52;0.10;;;20.50;39.40;;;;;;5046878;28;20064;-84
2021/03/17 01:20:57;;;;;;;0.80;0.10;;;20.50;39.40;;;;;;5043243;28;20026;-82
2021/03/17 01:23:23;;;;;;;2.50;0.13;;;20.50;39.40;;;;;;5045923;28;20045;-83
2021/03/17 01:25:49;;;;;;;0.50;0.10;;;20.50;39.40;;;;;;5045529;28;20120;-82
2021/03/17 01:28:15;;;;;;;0.40;0.10;;;20.50;39.40;;;;;;5047738;28;20075;-82
2021/03/17 01:30:44;;;;;;;0.85;0.00;;;20.50;39.60;;;;;;5051834;28;20033;-82
2021/03/17 01:33:11;;;;;;;0.95;0.03;;;20.50;39.40;;;;;;5045460;28;20029;-83
2021/03/17 01:35:37;;;;;;;0.50;0.00;;;20.40;39.30;;;;;;5046976;28;20029;-83
2021/03/17 01:38:03;;;;;;;0.80;0.10;;;20.40;39.30;;;;;;5043775;28;20133;-82
2021/03/17 01:40:30;;;;;;;0.40;0.10;;;20.40;39.20;;;;;;5031798;28;20089;-83
2021/03/17 01:42:56;;;;;;;0.73;0.10;;;20.40;39.30;;;;;;5045836;28;20025;-83
2021/03/17 01:45:22;;;;;;;0.30;0.10;;;20.40;39.20;;;;;;5047460;28;20040;-82
2021/03/17 01:47:50;;;;;;;0.17;0.00;;;20.40;39.40;;;;;;5050856;28;20033;-84
2021/03/17 01:50:22;;;;;;;0.50;0.05;;;20.40;39.60;;;;;;5048534;28;20037;-83
2021/03/17 01:52:48;;;;;;;1.52;0.10;;;20.40;39.40;;;;;;5045300;28;20029;-83
2021/03/17 01:55:16;;;;;;;0.50;0.10;;;20.40;39.40;;;;;;5027497;28;20934;-84
2021/03/17 01:57:42;;;;;;;0.20;0.00;;;20.40;39.30;;;;;;5044458;28;20040;-84
2021/03/17 02:00:11;;;;;;;1.58;0.10;;;20.30;39.30;;;;;;5043901;28;20025;-84
2021/03/17 02:02:38;;;;;;;0.30;0.00;;;20.30;39.30;;;;;;5044445;28;20114;-84
2021/03/17 02:05:13;;;;;;;0.20;0.10;;;20.30;39.30;;;;;;5048469;28;20025;-83
2021/03/17 02:07:39;;;;;;;0.40;0.10;;;20.30;39.80;;;;;;5041878;28;20036;-83
2021/03/17 02:10:14;;;;;;;0.30;0.10;;;20.30;39.80;;;;;;5046340;28;20108;-84
2021/03/17 02:13:01;;;;;;;0.50;0.20;;;20.30;39.70;;;;;;5042818;28;20052;-84
2021/03/17 02:15:46;;;;;;;1.80;0.10;;;20.30;39.20;;;;;;5045998;28;20025;-84
2021/03/17 02:18:21;;;;;;;0.20;0.10;;;20.30;39.10;;;;;;5049798;28;20098;-83
2021/03/17 02:21:28;;;;;;;0.22;0.00;;;20.30;39.20;;;;;;5084166;28;20923;-45
2021/03/17 02:24:17;;;;;;;0.28;0.00;;;20.30;39.20;;;;;;5066778;28;20051;-47
2021/03/17 02:27:03;;;;;;;0.30;0.00;;;20.30;39.30;;;;;;5070661;28;20036;-45
2021/03/17 02:30:20;;;;;;;0.32;0.00;;;20.40;42.20;;;;;;5071950;28;20032;-45
2021/03/17 02:33:24;;;;;;;0.50;0.05;;;20.30;39.50;;;;;;5055066;28;20128;-46
2021/03/17 02:35:55;;;;;;;0.30;0.00;;;20.30;39.70;;;;;;5069672;28;20134;-47
2021/03/17 02:38:23;;;;;;;0.30;0.10;;;20.30;40.00;;;;;;5071368;28;20140;-49
2021/03/17 02:40:53;;;;;;;0.10;0.00;;;20.30;40.50;;;;;;5073765;28;20032;-43
2021/03/17 02:43:30;;;;;;;0.30;0.08;;;20.30;41.00;;;;;;5071697;28;20159;-47
2021/03/17 02:46:00;;;;;;;0.60;0.00;;;20.20;39.30;;;;;;5071629;28;20029;-45
2021/03/17 02:48:44;;;;;;;0.38;0.00;;;20.20;39.20;;;;;;5072201;28;20032;-44
2021/03/17 02:51:28;;;;;;;0.10;0.00;;;20.20;39.30;;;;;;5070776;28;20059;-46
2021/03/17 02:53:55;;;;;;;0.47;0.03;;;20.10;39.20;;;;;;5070777;28;20036;-44
2021/03/17 02:56:23;;;;;;;0.22;0.10;;;20.20;39.20;;;;;;5070030;28;20097;-44
2021/03/17 02:58:49;;;;;;;0.40;0.10;;;20.20;39.20;;;;;;5072689;28;20115;-45
2021/03/17 03:01:17;;;;;;;0.73;0.10;;;20.20;39.20;;;;;;5072110;28;20557;-44
2021/03/17 03:03:45;;;;;;;0.40;0.00;;;20.20;39.30;;;;;;5070276;28;20047;-47
2021/03/17 03:06:11;;;;;;;0.32;0.00;;;20.10;39.10;;;;;;5069338;28;20036;-47
2021/03/17 03:08:40;;;;;;;2.25;0.08;;;20.20;39.20;;;;;;5071883;28;20055;-46
2021/03/17 03:11:07;;;;;;;0.20;0.00;;;20.20;39.30;;;;;;5071336;28;20036;-46
2021/03/17 03:13:36;;;;;;;0.20;0.00;;;20.20;39.30;;;;;;5069594;28;20028;-46
2021/03/17 03:16:02;;;;;;;0.20;0.00;;;20.20;39.40;;;;;;5070483;28;20037;-47
2021/03/17 03:18:31;;;;;;;0.38;0.10;;;20.20;39.40;;;;;;5069882;28;20029;-40
2021/03/17 03:20:57;;;;;;;0.95;0.00;;;20.10;39.40;;;;;;5072796;28;20036;-42
2021/03/17 03:23:23;;;;;;;0.20;0.00;;;20.10;39.30;;;;;;5069594;28;20040;-44
2021/03/17 03:25:50;;;;;;;0.30;0.00;;;20.10;39.30;;;;;;5069021;28;20028;-47
2021/03/17 03:28:18;;;;;;;0.10;0.00;;;20.10;39.20;;;;;;5071204;28;20118;-45
2021/03/17 03:30:46;;;;;;;0.30;0.00;;;20.10;39.30;;;;;;5067516;28;20025;-46
2021/03/17 03:33:12;;;;;;;0.43;0.00;;;20.10;39.40;;;;;;5054642;28;20035;-46
2021/03/17 03:35:38;;;;;;;0.20;0.00;;;20.10;39.40;;;;;;5057044;28;20055;-46
2021/03/17 03:38:06;;;;;;;0.13;0.00;;;20.10;39.50;;;;;;5057605;28;20511;-46
2021/03/17 03:40:32;;;;;;;0.10;0.00;;;20.10;39.70;;;;;;5058197;28;20386;-44
2021/03/17 03:42:58;;;;;;;0.45;0.10;;;20.10;40.00;;;;;;5056983;28;20036;-46
2021/03/17 03:45:24;;;;;;;0.75;0.00;;;20.10;40.50;;;;;;5056902;28;20036;-41
2021/03/17 03:47:49;;;;;;;0.00;0.00;;;20.10;40.20;;;;;;5057832;28;20033;-45
2021/03/17 03:50:19;;;;;;;0.20;0.00;;;20.00;40.30;;;;;;5058552;28;20041;-45
2021/03/17 03:53:04;;;;;;;0.32;0.08;;;20.10;41.00;;;;;;5056182;28;20120;-44
2021/03/17 03:55:55;;;;;;;0.10;0.00;;;20.10;40.60;;;;;;5054370;28;20102;-48
2021/03/17 03:58:29;;;;;;;0.20;0.05;;;20.00;40.70;;;;;;5057956;28;20044;-42
2021/03/17 04:01:02;;;;;;;0.10;0.00;;;20.10;40.90;;;;;;5056025;28;20040;-45
2021/03/17 04:03:32;;;;;;;0.30;0.00;;;20.10;41.00;;;;;;5057631;28;20056;-42
2021/03/17 04:05:58;;;;;;;0.30;0.05;;;20.00;39.80;;;;;;5056788;28;20555;-45
2021/03/17 04:08:26;;;;;;;0.25;0.00;;;20.00;39.90;;;;;;5058545;28;20032;-45
2021/03/17 04:10:56;;;;;;;0.10;0.00;;;20.00;40.00;;;;;;5057226;28;20044;-47
2021/03/17 04:13:22;;;;;;;0.63;0.00;;;20.00;40.30;;;;;;5052932;28;20131;-46
2021/03/17 04:15:49;;;;;;;0.82;0.00;;;20.00;40.20;;;;;;5054687;28;20431;-44
2021/03/17 04:18:17;;;;;;;0.88;0.00;;;19.90;39.70;;;;;;5057398;28;20040;-48
2021/03/17 04:20:52;;;;;;;0.20;0.00;;;20.00;40.00;;;;;;5058942;28;20032;-46
2021/03/17 04:23:21;;;;;;;0.10;0.00;;;20.00;41.70;;;;;;5054576;28;20028;-43
2021/03/17 04:25:49;;;;;;;0.65;0.00;;;20.00;40.50;;;;;;5054138;28;20039;-48
2021/03/17 04:28:18;;;;;;;0.15;0.00;;;20.00;40.40;;;;;;5056626;28;20036;-45
2021/03/17 04:30:45;;;;;;;0.50;0.10;;;19.90;40.30;;;;;;5057783;28;20096;-46
2021/03/17 04:33:13;;;;;;;0.17;0.00;;;20.00;40.90;;;;;;5054526;28;20048;-45
2021/03/17 04:35:43;;;;;;;0.80;0.10;;;19.90;40.30;;;;;;5052726;28;20086;-43
2021/03/17 04:38:09;;;;;;;0.13;0.10;;;19.90;40.30;;;;;;5057447;28;20040;-45
2021/03/17 04:40:37;;;;;;;0.30;0.00;;;19.90;40.30;;;;;;5055482;28;20421;-47
2021/03/17 04:43:04;;;;;;;0.40;0.00;;;19.90;40.40;;;;;;5053609;28;20557;-48
2021/03/17 04:45:30;;;;;;;0.10;0.00;;;19.90;40.60;;;;;;5056378;28;20032;-44
2021/03/17 04:47:57;;;;;;;0.65;0.00;;;19.90;40.80;;;;;;5056252;28;20041;-44
2021/03/17 04:50:25;;;;;;;0.55;0.10;;;19.90;41.10;;;;;;5057792;28;20039;-46
2021/03/17 04:52:52;;;;;;;0.22;0.00;;;19.90;41.00;;;;;;5054707;28;20116;-46
2021/03/17 04:55:17;;;;;;;0.25;0.00;;;19.90;41.10;;;;;;5053036;28;20043;-48
2021/03/17 04:57:45;;;;;;;0.40;0.05;;;19.90;41.00;;;;;;5055741;28;20028;-45
2021/03/17 05:00:16;;;;;;;0.15;0.00;;;19.90;40.90;;;;;;5055953;28;20402;-46
2021/03/17 05:02:50;;;;;;;0.88;0.20;;;19.90;41.30;;;;;;5053737;28;20384;-46
2021/03/17 05:05:16;;;;;;;0.50;0.05;;;19.90;43.30;;;;;;5054893;28;20028;-45
2021/03/17 05:07:43;;;;;;;0.35;0.10;;;19.80;41.10;;;;;;5055049;28;20405;-46
2021/03/17 05:10:10;;;;;;;0.20;0.00;;;19.90;40.90;;;;;;5056940;28;20674;-46
2021/03/17 05:12:38;;;;;;;0.45;0.00;;;19.90;40.20;;;;;;5054447;28;20413;-45
2021/03/17 05:15:06;;;;;;;0.13;0.00;;;19.80;40.10;;;;;;5056008;28;20055;-45
2021/03/17 05:17:33;;;;;;;0.10;0.00;;;19.80;40.00;;;;;;5055628;28;20044;-47
2021/03/17 05:19:59;;;;;;;0.20;0.00;;;19.80;40.00;;;;;;5057359;28;20044;-48
2021/03/17 05:22:26;;;;;;;0.75;0.00;;;19.80;39.80;;;;;;5054059;28;20024;-45
2021/03/17 05:24:52;;;;;;;0.20;0.00;;;19.80;39.90;;;;;;5056794;28;20029;-45
2021/03/17 05:27:25;;;;;;;1.45;0.10;;;19.80;39.80;;;;;;5055976;28;20053;-46
2021/03/17 05:29:51;;;;;;;0.20;0.00;;;19.70;39.70;;;;;;5056671;28;20064;-46
2021/03/17 05:32:17;;;;;;;0.10;0.00;;;19.80;39.70;;;;;;5052527;28;20697;-47
2021/03/17 05:35:01;;;;;;;0.55;0.10;;;19.70;39.60;;;;;;5055357;28;20025;-47
2021/03/17 05:37:27;;;;;;;0.17;0.00;;;19.70;39.50;;;;;;5056629;28;20029;-46
2021/03/17 05:39:54;;;;;;;0.10;0.00;;;19.70;39.50;;;;;;5056175;28;20040;-46
2021/03/17 05:42:21;;;;;;;0.45;0.00;;;19.70;39.50;;;;;;5053610;28;20561;-46
2021/03/17 05:44:47;;;;;;;0.32;0.00;;;19.70;39.60;;;;;;5055757;28;20029;-47
2021/03/17 05:47:13;;;;;;;0.40;0.10;;;19.70;39.70;;;;;;5056870;28;20029;-46
2021/03/17 05:49:39;;;;;;;0.40;0.10;;;19.70;39.60;;;;;;5056284;28;20214;-47
2021/03/17 05:52:08;;;;;;;0.20;0.00;;;19.70;39.40;;;;;;5053221;28;20033;-47
2021/03/17 05:54:35;;;;;;;0.40;0.10;;;19.70;39.50;;;;;;5052800;28;20033;-45
2021/03/17 05:57:02;;;;;;;0.30;0.10;;;19.70;39.50;;;;;;5056546;28;20103;-44
2021/03/17 05:59:29;;;;;;;0.30;0.00;;;19.70;39.50;;;;;;5056436;28;20110;-45
2021/03/17 06:01:56;;;;;;;0.20;0.10;;;19.70;39.50;;;;;;5055431;28;20420;-47
2021/03/17 06:04:23;;;;;;;0.30;0.00;;;19.70;39.60;;;;;;5054472;28;20161;-46
2021/03/17 06:06:51;;;;;;;0.63;0.00;;;19.70;39.50;;;;;;5054357;28;20024;-46
2021/03/17 06:09:19;;;;;;;0.82;0.03;;;19.70;39.60;;;;;;5056055;28;20480;-45
2021/03/17 06:11:46;;;;;;;0.70;0.00;;;19.70;39.60;;;;;;5055363;28;20021;-47
2021/03/17 06:14:16;;;;;;;0.22;0.00;;;19.70;39.60;;;;;;5055522;28;20021;-46
2021/03/17 06:16:44;;;;;;;0.30;0.00;;;19.60;39.50;;;;;;5054463;28;20031;-45
2021/03/17 06:19:13;;;;;;;0.95;0.10;;;19.60;39.40;;;;;;5056100;28;20037;-46
2021/03/17 06:21:39;;;;;;;0.10;0.00;;;19.70;39.50;;;;;;5058394;28;20084;-45
2021/03/17 06:24:05;;;;;;;0.30;0.00;;;19.70;39.60;;;;;;5060390;28;20032;-48
2021/03/17 06:26:35;;;;;;;0.20;0.05;;;19.60;39.50;;;;;;5056326;28;20393;-49
2021/03/17 06:29:00;;;;;;;0.20;0.00;;;19.60;39.50;;;;;;5059280;28;20032;-45
2021/03/17 06:31:27;;;;;;;0.10;0.00;;;19.60;39.70;;;;;;5056403;28;20033;-46
2021/03/17 06:33:56;;;;;;;0.10;0.00;;;19.70;39.80;;;;;;5056223;28;20896;-42
2021/03/17 06:36:24;;;;;;;0.70;0.10;;;19.80;39.60;;;;;;5058468;28;20035;-43
2021/03/17 06:39:02;;;;;;;0.30;0.00;;;19.90;39.30;;;;;;5055311;28;20021;-47
2021/03/17 06:41:42;;;;;;;0.20;0.00;;;20.10;39.10;;;;;;5053171;28;20021;-44
2021/03/17 06:44:08;;;;;;;0.57;0.00;;;20.20;38.90;;;;;;5054797;28;20052;-44
2021/03/17 06:46:34;;;;;;;0.77;0.13;;;20.40;38.80;;;;;;5053985;28;20489;-48
2021/03/17 06:49:00;;;;;;;0.65;0.10;;;20.50;38.70;;;;;;5053680;28;20017;-45
2021/03/17 06:51:29;;;;;;;1.45;0.10;;;20.50;38.60;;;;;;5054230;28;20052;-46
2021/03/17 06:53:56;;;;;;;0.20;0.00;;;20.60;38.50;;;;;;5053059;28;20025;-47
2021/03/17 06:56:29;;;;;;;0.08;0.00;;;20.60;38.50;;;;;;5053571;28;20033;-46
2021/03/17 06:58:58;;;;;;;1.05;0.00;;;20.70;38.50;;;;;;5053900;28;20033;-45
2021/03/17 07:01:37;;;;;;;0.20;0.00;;;20.70;38.50;;;;;;5053586;28;20056;-45
2021/03/17 07:04:11;;;;;;;0.13;0.00;;;20.70;38.50;;;;;;5053927;28;20107;-43
2021/03/17 07:06:40;;;;;;;0.68;0.00;;;20.70;38.50;;;;;;5057834;28;20039;-47
2021/03/17 07:09:27;;;;;;;0.13;0.00;;;20.80;38.40;;;;;;5056685;28;20112;-47
2021/03/17 07:12:04;;;;;;;0.30;0.00;;;20.90;38.40;;;;;;5057757;28;20420;-45
2021/03/17 07:14:40;;;;;;;0.10;0.00;;;20.90;38.30;;;;;;5055883;28;20025;-48
2021/03/17 07:17:29;;;;;;;2.15;0.00;;;21.00;38.40;;;;;;5054954;28;20036;-46
2021/03/17 07:19:55;;;;;;;0.40;0.00;;;21.00;38.50;;;;;;5057373;28;20063;-47
2021/03/17 07:22:22;;;;;;;0.10;0.00;;;21.00;38.50;;;;;;5057785;28;20056;-46
2021/03/17 07:24:54;;;;;;;0.10;0.00;;;21.10;38.60;;;;;;5053629;28;20032;-47
2021/03/17 07:27:27;;;;;;;;;;;21.00;38.50;;;;;;5058039;28;20039;-47
2021/03/17 07:30:03;;;;;;;0.10;0.00;;;21.10;38.70;;;;;;5058356;28;20373;-46
2021/03/17 07:33:06;;;;;;;0.20;0.00;;;21.00;38.60;;;;;;5055890;28;20037;-46
2021/03/17 07:35:37;;;;;;;0.28;0.03;;;21.10;38.70;;;;;;5056391;28;20044;-45
2021/03/17 07:38:13;;;;;;;0.20;0.03;;;21.10;38.70;;;;;;5059205;28;20524;-45
2021/03/17 07:40:41;;;;;;;4.65;0.08;;;21.00;38.80;;;;;;5057055;28;20139;-45
2021/03/17 07:43:08;;;;;;;0.88;0.00;;;21.00;38.80;;;;;;5055722;28;20502;-44
2021/03/17 07:45:34;;;;;;;1.55;0.10;;;21.00;38.80;;;;;;5054973;28;20043;-45
2021/03/17 07:48:05;;;;;;;0.20;0.00;;;21.00;38.70;;;;;;5057331;28;20033;-48
2021/03/17 07:50:32;;;;;;;0.50;0.00;;;21.00;38.90;;;;;;5055470;28;20041;-45
2021/03/17 07:53:01;;;;;;;2.67;0.00;;;21.00;39.10;;;;;;5055973;28;20034;-46
2021/03/17 07:55:28;;;;;;;1.00;0.03;;;21.00;39.40;;;;;;5053463;28;20826;-49
2021/03/17 07:57:56;;;;;;;2.00;0.00;;;20.90;39.50;;;;;;5057174;28;20505;-46
2021/03/17 08:00:23;;;;;;;3.92;0.20;;;20.90;39.60;;;;;;5056126;28;20100;-46
2021/03/17 08:02:49;;;;;;;1.80;0.00;;;20.90;39.90;;;;;;5052365;28;20041;-46
2021/03/17 08:05:15;;;;;;;2.00;0.00;;;20.90;40.00;;;;;;5055001;28;20036;-47
2021/03/17 08:07:41;;;;;;;1.65;0.08;;;20.70;41.90;;;;;;5058619;28;20115;-45
2021/03/17 08:10:08;;;;;;;0.77;0.10;;;20.90;41.00;;;;;;5057571;28;20168;-47
2021/03/17 08:12:34;;;;;;;0.30;0.10;;;20.90;42.00;;;;;;5056972;28;20040;-48
2021/03/17 08:15:01;;;;;;;0.20;0.00;;;20.80;42.50;;;;;;5059301;28;20048;-46
2021/03/17 08:17:32;;;;;;;2.95;0.20;;;20.80;42.20;;;;;;5055148;28;20033;-50
2021/03/17 08:20:27;;;;;;;1.42;0.15;;;20.70;42.10;;;;;;5056088;28;20413;-46
2021/03/17 08:22:55;;;;;;;2.90;0.10;;;20.70;41.80;;;;;;5057133;28;20037;-48
2021/03/17 08:25:42;;;;;;;1.48;0.20;;;20.70;41.20;;;;;;5051171;28;20033;-48
2021/03/17 08:28:16;;;;;;;1.02;0.10;;;20.70;41.30;;;;;;5052264;28;20030;-46
2021/03/17 08:30:41;;;;;;;0.55;0.00;;;20.70;41.60;;;;;;5054146;28;20033;-47
2021/03/17 08:33:07;;;;;;;0.47;0.10;;;20.60;41.40;;;;;;5054367;28;20043;-48
2021/03/17 08:36:07;;;;;;;0.30;0.00;;;20.60;41.90;;;;;;5054705;28;20078;-46
2021/03/17 08:38:51;;;;;;;0.32;0.10;;;20.60;41.40;;;;;;5054267;28;20040;-46
2021/03/17 08:41:40;;;;;;;1.55;0.20;;;20.60;41.70;;;;;;5054610;28;20041;-44
2021/03/17 08:44:18;;;;;;;2.85;0.22;;;20.50;41.90;;;;;;5050240;28;20024;-47
2021/03/17 08:46:44;;;;;;;3.25;0.10;;;20.50;41.70;;;;;;5053644;28;20107;-47
2021/03/17 08:49:13;;;;;;;1.05;0.10;;;20.50;42.00;;;;;;5054656;28;20116;-46
2021/03/17 08:51:47;;;;;;;2.42;0.20;;;20.50;42.30;;;;;;5054975;28;20029;-46
2021/03/17 08:54:31;;;;;;;7.32;0.32;;;20.50;42.00;;;;;;5053965;28;20521;-46
2021/03/17 08:57:05;;;;;;;3.13;0.20;;;20.50;41.60;;;;;;5054722;28;20048;-46
2021/03/17 08:59:56;;;;;;;2.55;0.20;;;20.50;41.90;;;;;;5055879;28;20040;-46
2021/03/17 09:02:29;;;;;;;2.65;0.20;;;20.50;42.10;;;;;;5048323;28;20084;-46
2021/03/17 09:05:04;;;;;;;4.45;0.20;;;20.50;42.50;;;;;;5053167;28;20059;-47
2021/03/17 09:07:34;;;;;;;1.30;0.20;;;20.50;42.50;;;;;;5056835;28;20025;-44
2021/03/17 09:10:06;;;;;;;1.20;0.28;;;20.60;42.40;;;;;;5057350;28;20079;-47
2021/03/17 09:12:35;;;;;;;4.05;0.35;;;20.70;41.10;;;;;;5052340;28;20033;-45
2021/03/17 09:15:19;;;;;;;2.53;0.22;;;20.80;40.80;;;;;;5055837;28;20553;-45
2021/03/17 09:17:56;;;;;;;0.95;0.20;;;20.90;40.70;;;;;;5054230;28;20029;-47
2021/03/17 09:20:29;;;;;;;5.07;0.38;;;21.00;40.60;;;;;;5057978;28;20435;-47
2021/03/17 09:22:57;;;;;;;2.38;0.57;;;21.10;40.50;;;;;;5053493;28;20049;-47
2021/03/17 09:25:26;;;;;;;2.35;0.38;;;21.20;40.50;;;;;;5054399;28;20028;-46
2021/03/17 09:28:14;;;;;;;6.13;0.20;;;21.30;40.40;;;;;;5051493;28;20036;-46
2021/03/17 09:30:56;;;;;;;2.13;0.20;;;21.30;40.30;;;;;;5055622;28;20100;-47
2021/03/17 09:33:29;;;;;;;3.20;0.20;;;21.30;40.40;;;;;;5054901;28;20047;-46
2021/03/17 09:36:03;;;;;;;4.53;0.57;;;21.30;40.30;;;;;;5054760;28;20025;-46
2021/03/17 09:38:34;;;;;;;2.35;0.65;;;21.40;40.50;;;;;;5052128;28;20652;-46
2021/03/17 09:41:21;;;;;;;3.30;0.60;;;21.40;40.40;;;;;;5048529;28;20111;-47
2021/03/17 09:43:51;;;;;;;2.78;0.57;;;21.40;40.40;;;;;;5051684;28;20037;-45
2021/03/17 09:46:28;;;;;;;2.45;0.70;;;21.40;40.60;;;;;;5053902;28;20644;-46
2021/03/17 09:48:57;;;;;;;3.50;0.40;;;21.40;40.80;;;;;;5055138;28;20498;-43
2021/03/17 09:51:26;;;;;;;1.88;0.68;;;21.40;41.00;;;;;;5052729;28;20100;-45
2021/03/17 09:53:54;;;;;;;3.20;1.05;;;21.40;40.70;;;;;;5054532;28;20063;-46
2021/03/17 09:56:55;;;;;;;1.98;0.80;;;21.40;40.80;;;;;;5055328;28;20105;-44
2021/03/17 09:59:41;;;;;;;1.65;0.68;;;21.40;40.80;;;;;;5030615;28;20068;-45
2021/03/17 10:02:24;;;;;;;3.50;1.45;;;21.40;40.70;;;;;;5056032;28;20043;-52
2021/03/17 10:04:59;;;;;;;2.35;0.90;;;21.40;40.70;;;;;;5052182;28;20036;-46
2021/03/17 10:07:26;;;;;;;3.47;0.82;;;21.40;40.80;;;;;;5054643;28;20048;-46
2021/03/17 10:09:54;;;;;;;5.95;1.65;;;21.40;40.80;;;;;;5056338;28;20036;-44
2021/03/17 10:12:25;;;;;;;3.30;1.38;;;21.30;40.70;;;;;;5051909;28;20044;-47
2021/03/17 10:15:06;;;;;;;5.00;1.73;;;21.30;40.90;;;;;;5053805;28;20040;-47
2021/03/17 10:17:32;;;;;;;7.30;1.73;;;21.30;41.10;;;;;;5054514;28;20059;-47
2021/03/17 10:20:01;;;;;;;4.88;1.20;;;21.30;41.10;;;;;;5053503;28;20498;-49
2021/03/17 10:22:29;;;;;;;5.28;1.60;;;21.30;41.40;;;;;;5049973;28;20044;-47
2021/03/17 10:24:57;;;;;;;6.03;2.28;;;21.30;41.50;;;;;;5050873;28;20437;-47
2021/03/17 10:27:31;;;;;;;4.38;1.70;;;21.30;41.60;;;;;;5051177;28;20037;-46
2021/03/17 10:30:06;;;;;;;3.90;1.70;;;21.30;41.90;;;;;;5054180;28;20030;-47
2021/03/17 10:32:34;;;;;;;5.65;1.67;;;21.30;42.30;;;;;;5052933;28;20033;-47
2021/03/17 10:35:06;;;;;;;5.75;1.58;;;21.20;42.80;;;;;;5051373;28;20036;-46
2021/03/17 10:37:32;;;;;;;6.78;1.90;;;21.20;42.40;;;;;;5053197;28;20538;-47
2021/03/17 10:40:14;;;;;;;5.40;1.90;;;21.20;42.40;;;;;;5052222;28;20116;-46
2021/03/17 10:42:47;;;;;;;5.30;1.70;;;21.10;42.70;;;;;;5058723;28;20035;-46
2021/03/17 10:45:17;;;;;;;5.82;1.73;;;21.10;43.20;;;;;;5058050;28;20447;-45
2021/03/17 10:47:44;;;;;;;4.38;1.77;;;21.10;42.50;;;;;;5060177;28;20561;-45
2021/03/17 10:50:16;;;;;;;3.60;1.10;;;21.00;42.60;;;;;;5059762;28;20099;-46
2021/03/17 10:52:47;;;;;;;5.93;2.28;;;21.00;42.50;;;;;;5068377;28;20027;-54
2021/03/17 10:55:23;;;;;;;6.20;1.27;;;21.00;42.90;;;;;;5064049;28;20063;-45
2021/03/17 10:57:49;;;;;;;5.38;1.63;;;21.00;43.20;;;;;;5065302;28;20020;-45
2021/03/17 11:00:21;;;;;;;8.63;1.58;;;20.90;42.90;;;;;;5056832;28;20422;-45
2021/03/17 11:02:47;;;;;;;6.90;1.52;;;20.90;43.00;;;;;;5057210;28;20045;-49
2021/03/17 11:05:26;;;;;;;3.22;1.15;;;20.90;43.20;;;;;;5053422;28;20103;-49
2021/03/17 11:08:06;;;;;;;2.40;1.30;;;20.90;43.40;;;;;;5054337;28;20020;-45
2021/03/17 11:10:35;;;;;;;6.38;1.13;;;20.90;43.90;;;;;;5053661;28;20098;-47
2021/03/17 11:13:22;;;;;;;3.60;0.98;;;20.90;44.10;;;;;;5054055;28;20082;-48
2021/03/17 11:15:52;;;;;;;2.55;1.08;;;20.90;42.80;;;;;;5051560;28;20094;-48
2021/03/17 11:18:20;;;;;;;5.35;0.85;;;20.90;42.60;;;;;;5050819;28;20021;-46
2021/03/17 11:20:45;;;;;;;4.40;0.73;;;20.90;42.60;;;;;;5049731;28;20032;-50
2021/03/17 11:23:39;;;;;;;3.78;0.52;;;20.80;42.50;;;;;;5053549;28;20028;-45
2021/03/17 11:26:18;;;;;;;2.47;0.80;;;20.90;42.60;;;;;;5054434;28;20036;-43
2021/03/17 11:28:44;;;;;;;3.70;0.77;;;20.90;42.70;;;;;;5059559;28;20020;-47
2021/03/17 11:31:12;;;;;;;4.80;0.65;;;20.90;42.50;;;;;;5060241;28;20044;-49
2021/03/17 11:33:39;;;;;;;2.65;0.52;;;21.00;42.50;;;;;;5055035;28;20033;-45
2021/03/17 11:36:07;;;;;;;4.40;0.60;;;21.10;42.30;;;;;;5055428;28;20364;-45
2021/03/17 11:38:34;;;;;;;2.97;0.65;;;21.20;42.20;;;;;;5054627;28;20033;-46
2021/03/17 11:41:00;;;;;;;5.70;0.60;;;21.30;42.20;;;;;;5056941;28;20063;-47
2021/03/17 11:43:28;;;;;;;1.13;0.50;;;21.30;42.30;;;;;;5057009;28;20033;-47
2021/03/17 11:45:55;;;;;;;2.58;0.40;;;21.40;42.30;;;;;;5054527;28;20017;-44
2021/03/17 11:48:22;;;;;;;1.08;0.38;;;21.50;42.50;;;;;;5056102;28;20033;-47
2021/03/17 11:50:50;;;;;;;5.05;0.50;;;21.50;42.20;;;;;;5052837;28;20038;-47
2021/03/17 11:53:17;;;;;;;2.92;0.57;;;21.60;41.20;;;;;;5053130;28;20919;-51
2021/03/17 11:55:43;;;;;;;2.22;0.45;;;21.60;41.00;;;;;;5049233;28;20029;-45
2021/03/17 11:58:09;;;;;;;1.77;0.55;;;21.60;41.00;;;;;;5052055;28;20146;-47
2021/03/17 12:00:36;;;;;;;2.83;0.22;;;21.70;40.70;;;;;;5049210;28;20091;-46
2021/03/17 12:03:02;;;;;;;1.55;0.32;;;21.70;40.60;;;;;;5053874;28;20021;-46
2021/03/17 12:05:28;;;;;;;1.67;0.20;;;21.80;40.50;;;;;;5052254;28;20016;-49
2021/03/17 12:07:54;;;;;;;2.95;0.32;;;21.80;40.40;;;;;;5048661;28;20029;-43
2021/03/17 12:10:20;;;;;;;1.60;0.30;;;21.80;40.40;;;;;;5049921;28;20166;-45
2021/03/17 12:12:46;;;;;;;0.98;0.20;;;21.90;40.50;;;;;;5051414;28;20481;-45
2021/03/17 12:15:16;;;;;;;1.00;0.25;;;21.90;40.50;;;;;;5051901;28;20422;-46
2021/03/17 12:17:42;;;;;;;1.33;0.20;;;21.90;40.60;;;;;;5051990;28;20497;-48
2021/03/17 12:20:09;;;;;;;1.20;0.20;;;21.90;40.60;;;;;;5051268;28;20955;-44
2021/03/17 12:22:35;;;;;;;2.00;0.50;;;21.90;40.80;;;;;;5049654;28;20040;-42
2021/03/17 12:25:02;;;;;;;1.00;0.20;;;21.90;40.90;;;;;;5051474;28;20024;-45
2021/03/17 12:27:28;;;;;;;2.28;0.15;;;21.80;41.10;;;;;;5051602;28;20402;-48
2021/03/17 12:29:54;;;;;;;0.57;0.17;;;21.80;41.10;;;;;;5049268;28;20059;-45
2021/03/17 12:32:20;;;;;;;2.30;0.40;;;21.80;41.30;;;;;;5050564;28;20068;-47
2021/03/17 12:34:46;;;;;;;1.98;0.30;;;21.80;41.50;;;;;;5047994;28;20063;-49
2021/03/17 12:37:12;;;;;;;3.30;0.30;;;21.70;41.70;;;;;;5051474;28;20464;-45
2021/03/17 12:39:39;;;;;;;2.55;0.25;;;21.70;42.20;;;;;;5050876;28;20017;-45
2021/03/17 12:42:05;;;;;;;2.78;0.40;;;21.70;42.60;;;;;;5053462;28;20064;-44
2021/03/17 12:44:32;;;;;;;4.90;0.52;;;21.70;42.30;;;;;;5049118;28;20103;-46
2021/03/17 12:46:58;;;;;;;2.70;0.40;;;21.70;41.50;;;;;;5050455;28;20486;-50
2021/03/17 12:49:25;;;;;;;2.60;0.30;;;21.60;41.30;;;;;;5050986;28;20552;-45
2021/03/17 12:51:50;;;;;;;2.75;0.60;;;21.60;41.30;;;;;;5049557;28;20383;-42
2021/03/17 12:54:16;;;;;;;1.67;0.47;;;21.60;41.30;;;;;;5053174;28;20098;-44
2021/03/17 12:56:42;;;;;;;2.15;0.40;;;21.60;41.30;;;;;;5049226;28;20031;-45
2021/03/17 12:59:07;;;;;;;2.38;0.28;;;21.60;41.40;;;;;;5049865;28;20113;-46
2021/03/17 13:01:33;;;;;;;1.75;0.45;;;21.60;41.40;;;;;;5052512;28;20058;-45
2021/03/17 13:03:58;;;;;;;0.65;0.20;;;21.50;41.40;;;;;;5051261;28;20035;-46